createdAt,value
2022-11-29T00:02:19.075Z,66.95
2022-11-29T00:04:50.137Z,67.23
2022-11-29T00:07:21.481Z,66.82
2022-11-29T00:09:52.424Z,66.94
2022-11-29T00:12:23.338Z,66.98
2022-11-29T00:14:54.170Z,67.21
2022-11-29T00:17:25.127Z,67.20
2022-11-29T00:19:56.037Z,67.14
2022-11-29T00:22:26.972Z,67.10
2022-11-29T00:24:57.768Z,66.87
2022-11-29T00:27:28.691Z,66.91
2022-11-29T00:29:59.505Z,66.85
2022-11-29T00:32:32.403Z,66.55
2022-11-29T00:35:09.289Z,66.54
2022-11-29T00:37:35.846Z,66.54
2022-11-29T00:40:07.433Z,66.45
2022-11-29T00:42:38.677Z,66.71
2022-11-29T00:45:09.883Z,66.63
2022-11-29T00:47:40.816Z,66.82
2022-11-29T00:50:12.010Z,66.65
2022-11-29T00:52:43.045Z,66.96
2022-11-29T00:55:13.861Z,66.84
2022-11-29T00:57:44.694Z,66.87
2022-11-29T01:00:16.051Z,67.08
2022-11-29T01:02:47.050Z,67.04
2022-11-29T01:05:17.950Z,66.75
2022-11-29T01:07:48.761Z,66.50
2022-11-29T01:10:19.835Z,66.71
2022-11-29T01:12:51.158Z,66.56
2022-11-29T01:15:22.220Z,66.13
2022-11-29T01:17:53.639Z,66.25
2022-11-29T01:20:24.566Z,66.52
2022-11-29T01:22:55.400Z,66.60
2022-11-29T01:25:26.396Z,66.49
2022-11-29T01:27:57.496Z,66.44
2022-11-29T01:30:28.356Z,65.81
2022-11-29T01:32:59.279Z,66.05
2022-11-29T01:35:30.235Z,66.16
2022-11-29T01:38:01.333Z,66.22
2022-11-29T01:40:32.755Z,66.29
2022-11-29T01:43:19.355Z,66.46
2022-11-29T01:45:51.133Z,66.46
2022-11-29T01:48:26.297Z,66.49
2022-11-29T01:50:58.682Z,66.04
2022-11-29T01:53:29.973Z,66.15
2022-11-29T01:56:02.421Z,66.25
2022-11-29T01:58:34.250Z,66.49
2022-11-29T02:01:05.172Z,66.07
2022-11-29T02:03:36.180Z,65.90
2022-11-29T02:06:07.844Z,65.86
2022-11-29T02:08:39.936Z,65.89
2022-11-29T02:11:17.984Z,66.12
2022-11-29T02:13:50.902Z,66.34
2022-11-29T02:16:23.156Z,66.30
2022-11-29T02:18:58.273Z,66.49
2022-11-29T02:21:34.009Z,66.71
2022-11-29T02:24:06.681Z,66.47
2022-11-29T02:26:39.149Z,66.45
2022-11-29T02:29:27.606Z,66.57
2022-11-29T02:31:59.888Z,66.68
2022-11-29T02:34:41.816Z,66.52
2022-11-29T02:37:14.376Z,66.61
2022-11-29T02:39:58.634Z,66.51
2022-11-29T02:42:35.608Z,66.57
2022-11-29T02:45:11.259Z,66.46
2022-11-29T02:47:43.712Z,66.50
2022-11-29T02:50:19.001Z,66.64
2022-11-29T02:52:51.324Z,66.78
2022-11-29T02:55:23.629Z,66.99
2022-11-29T02:58:08.196Z,67.07
2022-11-29T03:00:40.853Z,66.83
2022-11-29T03:03:13.163Z,66.92
2022-11-29T03:05:48.471Z,66.97
2022-11-29T03:08:23.755Z,67.10
2022-11-29T03:11:05.145Z,67.06
2022-11-29T03:13:40.664Z,67.05
2022-11-29T03:16:12.913Z,67.11
2022-11-29T03:18:51.477Z,67.16
2022-11-29T03:21:35.814Z,67.26
2022-11-29T03:24:08.172Z,67.21
2022-11-29T03:26:40.477Z,67.32
2022-11-29T03:29:29.346Z,67.26
2022-11-29T03:32:04.734Z,67.34
2022-11-29T03:34:39.820Z,67.35
2022-11-29T03:37:21.378Z,67.36
2022-11-29T03:39:53.852Z,67.19
2022-11-29T03:42:29.064Z,67.22
2022-11-29T03:45:01.811Z,66.96
2022-11-29T03:47:34.366Z,66.96
2022-11-29T03:50:10.371Z,66.22
2022-11-29T03:52:42.757Z,65.76
2022-11-29T03:55:14.994Z,65.50
2022-11-29T03:57:47.630Z,65.66
2022-11-29T04:00:19.580Z,65.80
2022-11-29T04:02:54.954Z,65.70
2022-11-29T04:05:36.317Z,65.82
2022-11-29T04:08:20.298Z,65.97
2022-11-29T04:10:58.732Z,65.92
2022-11-29T04:13:31.284Z,66.01
2022-11-29T04:16:20.281Z,65.98
2022-11-29T04:18:55.659Z,65.62
2022-11-29T04:21:37.280Z,65.23
2022-11-29T04:24:12.665Z,65.19
2022-11-29T04:27:01.464Z,65.27
2022-11-29T04:29:50.312Z,64.90
2022-11-29T04:32:39.769Z,64.68
2022-11-29T04:35:12.985Z,64.82
2022-11-29T04:37:48.115Z,65.05
2022-11-29T04:40:27.317Z,65.13
2022-11-29T04:43:05.942Z,65.20
2022-11-29T04:45:47.297Z,65.36
2022-11-29T04:48:36.328Z,65.25
2022-11-29T04:51:08.939Z,65.38
2022-11-29T04:53:57.978Z,65.44
2022-11-29T04:56:41.016Z,65.15
2022-11-29T04:59:29.046Z,65.33
2022-11-29T05:02:01.546Z,65.34
2022-11-29T05:04:34.811Z,65.43
2022-11-29T05:07:11.149Z,65.49
2022-11-29T05:09:49.735Z,64.90
2022-11-29T05:12:34.270Z,64.86
2022-11-29T05:15:12.878Z,64.99
2022-11-29T05:17:46.660Z,65.06
2022-11-29T05:20:36.764Z,65.17
2022-11-29T05:23:10.528Z,65.27
2022-11-29T05:25:49.213Z,65.35
2022-11-29T05:28:22.012Z,65.42
2022-11-29T05:31:11.991Z,65.44
2022-11-29T05:33:56.842Z,65.47
2022-11-29T05:36:46.241Z,65.61
2022-11-29T05:39:18.869Z,65.60
2022-11-29T05:41:52.019Z,65.68
2022-11-29T05:44:37.216Z,65.71
2022-11-29T05:47:13.042Z,65.64
2022-11-29T05:50:01.680Z,65.58
2022-11-29T05:52:53.249Z,65.46
2022-11-29T05:55:25.815Z,65.31
2022-11-29T05:58:01.150Z,65.39
2022-11-29T06:00:36.608Z,65.17
2022-11-29T06:03:09.411Z,64.55
2022-11-29T06:05:54.402Z,64.52
2022-11-29T06:08:43.750Z,64.16
2022-11-29T06:11:19.090Z,63.48
2022-11-29T06:14:00.616Z,63.53
2022-11-29T06:16:40.319Z,63.76
2022-11-29T06:19:29.608Z,63.81
2022-11-29T06:22:02.381Z,63.84
2022-11-29T06:24:41.772Z,62.91
2022-11-29T06:27:17.423Z,62.90
2022-11-29T06:29:49.836Z,62.49
2022-11-29T06:32:34.987Z,62.48
2022-11-29T06:35:07.973Z,62.65
2022-11-29T06:37:43.423Z,63.03
2022-11-29T06:40:16.151Z,63.07
2022-11-29T06:42:49.536Z,62.57
2022-11-29T06:45:21.962Z,62.55
2022-11-29T06:47:54.339Z,62.68
2022-11-29T06:50:36.474Z,62.78
2022-11-29T06:53:09.381Z,62.78
2022-11-29T06:55:42.981Z,62.98
2022-11-29T06:58:32.883Z,62.99
2022-11-29T07:01:14.250Z,63.00
2022-11-29T07:03:53.561Z,63.01
2022-11-29T07:06:29.313Z,63.08
2022-11-29T07:09:02.244Z,62.96
2022-11-29T07:11:34.190Z,62.63
2022-11-29T07:14:06.351Z,62.70
2022-11-29T07:16:57.061Z,62.81
2022-11-29T07:19:25.799Z,62.12
2022-11-29T07:21:59.066Z,62.08
2022-11-29T07:24:31.749Z,62.22
2022-11-29T07:27:25.710Z,62.45
2022-11-29T07:29:58.119Z,62.57
2022-11-29T07:32:37.054Z,62.31
2022-11-29T07:35:09.801Z,62.41
2022-11-29T07:37:48.529Z,61.55
2022-11-29T07:40:27.657Z,61.88
2022-11-29T07:43:06.212Z,62.08
2022-11-29T07:45:37.476Z,62.17
2022-11-29T07:48:08.725Z,61.71
2022-11-29T07:50:40.934Z,61.92
2022-11-29T07:53:19.508Z,62.03
2022-11-29T07:55:51.810Z,61.83
2022-11-29T07:58:24.955Z,61.49
2022-11-29T08:00:56.174Z,61.21
2022-11-29T08:03:27.758Z,61.00
2022-11-29T08:05:59.749Z,60.95
2022-11-29T08:08:31.265Z,60.92
2022-11-29T08:11:02.235Z,61.14
2022-11-29T08:13:33.799Z,61.25
2022-11-29T08:16:05.476Z,60.96
2022-11-29T08:18:40.309Z,60.53
2022-11-29T08:21:12.269Z,60.48
2022-11-29T08:23:43.323Z,60.70
2022-11-29T08:26:15.191Z,60.55
2022-11-29T08:28:46.337Z,60.63
2022-11-29T08:31:17.677Z,60.79
2022-11-29T08:33:48.731Z,59.83
2022-11-29T08:36:22.604Z,59.76
2022-11-29T08:39:00.094Z,60.07
2022-11-29T08:41:27.155Z,60.19
2022-11-29T08:43:59.013Z,60.33
2022-11-29T08:46:31.857Z,59.92
2022-11-29T08:49:03.196Z,60.10
2022-11-29T08:51:34.699Z,59.72
2022-11-29T08:54:05.579Z,59.70
2022-11-29T08:59:10.091Z,59.81
2022-11-29T09:01:41.671Z,59.99
2022-11-29T09:04:13.513Z,60.19
2022-11-29T09:06:46.170Z,59.75
2022-11-29T09:09:17.651Z,59.88
2022-11-29T09:11:49.759Z,59.81
2022-11-29T09:14:22.937Z,59.06
2022-11-29T09:16:54.288Z,58.65
2022-11-29T09:19:25.923Z,58.14
2022-11-29T09:21:57.301Z,58.29
2022-11-29T09:24:28.465Z,58.53
2022-11-29T09:26:59.987Z,58.48
2022-11-29T09:29:31.218Z,58.69
2022-11-29T09:32:02.307Z,58.54
2022-11-29T09:34:33.438Z,58.79
2022-11-29T09:37:05.839Z,58.78
2022-11-29T09:39:36.893Z,58.62
2022-11-29T09:42:22.071Z,58.62
2022-11-29T09:44:57.429Z,58.49
2022-11-29T09:47:46.563Z,58.65
2022-11-29T09:50:28.355Z,58.10
2022-11-29T09:53:00.883Z,58.07
2022-11-29T09:55:50.504Z,58.18
2022-11-29T09:58:23.656Z,57.83
2022-11-29T10:00:57.426Z,57.69
2022-11-29T10:03:36.500Z,57.85
2022-11-29T10:06:08.916Z,57.57
2022-11-29T10:08:47.228Z,57.58
2022-11-29T10:11:38.071Z,57.55
2022-11-29T10:14:13.616Z,57.84
2022-11-29T10:16:46.444Z,57.86
2022-11-29T10:19:22.288Z,57.84
2022-11-29T10:21:55.674Z,58.11
2022-11-29T10:24:28.902Z,58.09
2022-11-29T10:27:01.226Z,58.24
2022-11-29T10:29:32.338Z,58.34
2022-11-29T10:32:10.051Z,58.51
2022-11-29T10:34:38.980Z,58.28
2022-11-29T10:37:11.270Z,57.91
2022-11-29T10:39:47.233Z,57.82
2022-11-29T10:42:38.120Z,58.02
2022-11-29T10:45:19.608Z,58.23
2022-11-29T10:47:53.652Z,58.33
2022-11-29T10:50:26.126Z,58.50
2022-11-29T10:53:00.238Z,58.57
2022-11-29T10:55:33.491Z,58.70
2022-11-29T10:58:12.736Z,58.52
2022-11-29T11:00:45.819Z,58.66
2022-11-29T11:03:18.320Z,58.82
2022-11-29T11:06:00.027Z,58.83
2022-11-29T11:08:32.134Z,59.02
2022-11-29T11:11:04.662Z,59.04
2022-11-29T11:13:36.860Z,59.05
2022-11-29T11:16:10.759Z,59.21
2022-11-29T11:18:41.692Z,59.28
2022-11-29T11:21:14.125Z,59.36
2022-11-29T11:24:04.013Z,59.39
2022-11-29T11:26:45.755Z,59.42
2022-11-29T11:29:18.218Z,59.41
2022-11-29T11:31:53.810Z,59.46
2022-11-29T11:34:26.734Z,59.55
2022-11-29T11:37:17.915Z,59.49
2022-11-29T11:39:50.386Z,59.62
2022-11-29T11:42:38.359Z,59.57
2022-11-29T11:45:14.133Z,59.71
2022-11-29T11:47:46.718Z,59.69
2022-11-29T11:50:19.097Z,59.55
2022-11-29T11:52:54.202Z,59.57
2022-11-29T11:55:30.371Z,59.50
2022-11-29T11:58:09.269Z,59.70
2022-11-29T12:03:23.209Z,59.68
2022-11-29T12:05:55.666Z,59.66
2022-11-29T12:08:28.201Z,59.53
2022-11-29T12:11:06.907Z,59.42
2022-11-29T12:13:36.021Z,59.64
2022-11-29T12:16:09.207Z,59.85
2022-11-29T12:18:48.044Z,59.29
2022-11-29T12:21:20.460Z,59.31
2022-11-29T12:23:59.796Z,59.30
2022-11-29T12:26:56.585Z,59.35
2022-11-29T12:29:05.136Z,59.29
2022-11-29T12:31:54.471Z,59.06
2022-11-29T12:34:32.735Z,59.16
2022-11-29T12:37:05.565Z,59.21
2022-11-29T12:39:39.061Z,59.21
2022-11-29T12:42:17.441Z,59.36
2022-11-29T12:44:59.063Z,59.50
2022-11-29T12:47:36.240Z,59.68
2022-11-29T12:50:15.719Z,59.82
2022-11-29T12:52:57.439Z,60.18
2022-11-29T12:55:36.097Z,60.10
2022-11-29T12:58:11.962Z,60.32
2022-11-29T13:00:45.001Z,60.19
2022-11-29T13:03:23.073Z,60.33
2022-11-29T13:06:08.295Z,60.39
2022-11-29T13:08:44.201Z,60.54
2022-11-29T13:11:32.948Z,61.00
2022-11-29T13:17:01.413Z,61.39
2022-11-29T13:19:34.280Z,61.42
2022-11-29T13:22:16.027Z,61.39
2022-11-29T13:24:48.695Z,61.30
2022-11-29T13:27:40.374Z,61.89
2022-11-29T13:30:13.323Z,61.76
2022-11-29T13:32:45.901Z,61.90
2022-11-29T13:35:22.767Z,62.25
2022-11-29T13:37:55.649Z,62.10
2022-11-29T13:40:40.497Z,62.12
2022-11-29T13:43:13.933Z,62.33
2022-11-29T13:45:56.141Z,62.28
2022-11-29T13:48:31.639Z,62.31
2022-11-29T13:51:20.586Z,62.45
2022-11-29T13:53:52.557Z,62.47
2022-11-29T13:56:29.831Z,62.70
2022-11-29T13:59:01.982Z,62.67
2022-11-29T14:01:35.573Z,62.66
2022-11-29T14:04:17.260Z,62.77
2022-11-29T14:06:49.846Z,63.01
2022-11-29T14:09:31.519Z,62.84
2022-11-29T14:12:07.394Z,62.91
2022-11-29T14:14:43.079Z,62.97
2022-11-29T14:17:27.600Z,62.94
2022-11-29T14:19:59.975Z,62.93
2022-11-29T14:22:32.404Z,63.09
2022-11-29T14:25:21.731Z,63.18
2022-11-29T14:27:39.495Z,63.21
2022-11-29T14:30:28.936Z,63.28
2022-11-29T14:33:07.710Z,63.33
2022-11-29T14:35:40.713Z,63.36
2022-11-29T14:38:16.408Z,63.42
2022-11-29T14:40:50.681Z,63.39
2022-11-29T14:43:34.961Z,63.91
2022-11-29T14:46:20.325Z,63.87
2022-11-29T14:48:59.733Z,63.76
2022-11-29T14:51:32.339Z,63.81
2022-11-29T14:54:07.937Z,63.75
2022-11-29T14:56:42.521Z,63.92
2022-11-29T14:59:32.259Z,63.87
2022-11-29T15:02:04.943Z,64.08
2022-11-29T15:04:37.546Z,64.14
2022-11-29T15:07:10.570Z,64.21
2022-11-29T15:09:42.704Z,64.13
2022-11-29T15:12:17.870Z,64.06
2022-11-29T15:15:08.268Z,64.06
2022-11-29T15:17:40.681Z,64.14
2022-11-29T15:20:16.088Z,64.33
2022-11-29T15:22:48.872Z,64.33
2022-11-29T15:25:24.696Z,64.42
2022-11-29T15:27:57.326Z,64.40
2022-11-29T15:30:41.591Z,64.45
2022-11-29T15:33:23.197Z,64.86
2022-11-29T15:35:55.439Z,64.67
2022-11-29T15:38:27.547Z,64.60
2022-11-29T15:40:59.249Z,64.66
2022-11-29T15:43:32.047Z,64.65
2022-11-29T15:46:04.092Z,64.78
2022-11-29T15:48:35.323Z,64.76
2022-11-29T15:51:07.879Z,65.12
2022-11-29T15:53:47.454Z,64.85
2022-11-29T15:56:32.092Z,64.89
2022-11-29T15:59:05.279Z,65.12
2022-11-29T16:01:37.355Z,65.35
2022-11-29T16:04:09.823Z,65.42
2022-11-29T16:06:45.031Z,65.11
2022-11-29T16:09:17.617Z,65.23
2022-11-29T16:11:49.310Z,65.11
2022-11-29T16:14:22.560Z,65.35
2022-11-29T16:16:55.742Z,65.25
2022-11-29T16:19:31.672Z,65.24
2022-11-29T16:22:04.068Z,65.25
2022-11-29T16:24:35.396Z,65.33
2022-11-29T16:27:07.471Z,65.10
2022-11-29T16:29:40.131Z,65.28
2022-11-29T16:32:15.890Z,65.22
2022-11-29T16:34:47.393Z,65.50
2022-11-29T16:37:23.274Z,65.54
2022-11-29T16:39:56.506Z,65.48
2022-11-29T16:42:29.161Z,65.75
2022-11-29T16:45:05.174Z,65.63
2022-11-29T16:47:45.176Z,65.74
2022-11-29T16:50:22.989Z,65.74
2022-11-29T16:52:56.810Z,65.78
2022-11-29T16:55:27.447Z,65.83
2022-11-29T16:57:59.289Z,65.77
2022-11-29T17:00:32.559Z,65.85
2022-11-29T17:03:05.281Z,65.86
2022-11-29T17:05:40.248Z,66.07
2022-11-29T17:08:09.036Z,65.96
2022-11-29T17:10:39.963Z,65.98
2022-11-29T17:13:12.839Z,66.08
2022-11-29T17:15:44.014Z,66.30
2022-11-29T17:18:15.154Z,66.46
2022-11-29T17:20:46.176Z,66.51
2022-11-29T17:23:17.419Z,66.35
2022-11-29T17:25:50.191Z,66.36
2022-11-29T17:28:21.857Z,66.40
2022-11-29T17:30:53.401Z,66.43
2022-11-29T17:33:24.787Z,66.59
2022-11-29T17:35:56.185Z,66.95
2022-11-29T17:38:27.507Z,67.07
2022-11-29T17:40:58.946Z,67.16
2022-11-29T17:43:29.999Z,67.05
2022-11-29T17:46:01.752Z,66.95
2022-11-29T17:48:33.727Z,67.05
2022-11-29T17:51:13.491Z,67.44
2022-11-29T17:53:38.665Z,67.21
2022-11-29T17:56:11.717Z,67.20
2022-11-29T17:58:42.961Z,67.19
2022-11-29T18:01:14.756Z,67.32
2022-11-29T18:03:46.354Z,67.52
2022-11-29T18:06:18.908Z,67.39
2022-11-29T18:08:54.464Z,67.44
2022-11-29T18:11:27.675Z,67.48
2022-11-29T18:13:58.857Z,67.60
2022-11-29T18:16:31.647Z,67.52
2022-11-29T18:19:04.529Z,67.50
2022-11-29T18:21:35.920Z,67.59
2022-11-29T18:24:07.690Z,67.50
2022-11-29T18:26:38.960Z,67.52
2022-11-29T18:29:10.064Z,67.51
2022-11-29T18:31:42.119Z,67.63
2022-11-29T18:34:13.816Z,67.87
2022-11-29T18:36:45.898Z,67.86
2022-11-29T18:39:18.531Z,67.97
2022-11-29T18:41:50.056Z,67.82
2022-11-29T18:44:23.333Z,67.90
2022-11-29T18:46:55.018Z,67.84
2022-11-29T18:49:25.791Z,67.73
2022-11-29T18:51:56.660Z,67.82
2022-11-29T18:54:29.251Z,67.98
2022-11-29T18:57:00.351Z,67.81
2022-11-29T18:59:31.115Z,67.97
2022-11-29T19:02:02.545Z,67.97
2022-11-29T19:04:33.456Z,67.87
2022-11-29T19:07:04.765Z,67.73
2022-11-29T19:09:35.728Z,67.76
2022-11-29T19:12:07.577Z,67.66
2022-11-29T19:14:41.806Z,67.62
2022-11-29T19:17:12.207Z,67.53
2022-11-29T19:19:43.245Z,67.44
2022-11-29T19:22:14.618Z,67.40
2022-11-29T19:24:45.725Z,67.52
2022-11-29T19:27:17.011Z,67.42
2022-11-29T19:29:48.042Z,67.44
2022-11-29T19:32:19.073Z,67.59
2022-11-29T19:34:49.899Z,67.68
2022-11-29T19:37:20.783Z,67.71
2022-11-29T19:39:51.861Z,67.67
2022-11-29T19:42:22.893Z,67.75
2022-11-29T19:45:15.815Z,67.67
2022-11-29T19:47:27.016Z,67.61
2022-11-29T19:50:02.169Z,67.64
2022-11-29T19:52:32.201Z,67.61
2022-11-29T19:55:03.738Z,67.77
2022-11-29T19:57:34.617Z,67.78
2022-11-29T20:00:06.006Z,67.76
2022-11-29T20:02:39.074Z,67.71
2022-11-29T20:05:12.078Z,67.80
2022-11-29T20:07:42.929Z,67.85
2022-11-29T20:10:13.877Z,67.88
2022-11-29T20:12:44.731Z,67.90
2022-11-29T20:15:15.525Z,67.92
2022-11-29T20:17:48.652Z,68.00
2022-11-29T20:20:19.935Z,67.98
2022-11-29T20:22:52.250Z,68.19
2022-11-29T20:25:23.096Z,68.01
2022-11-29T20:27:54.030Z,68.11
2022-11-29T20:30:26.102Z,68.15
2022-11-29T20:32:57.090Z,68.22
2022-11-29T20:35:28.519Z,68.17
2022-11-29T20:38:03.755Z,68.17
2022-11-29T20:40:36.164Z,68.18
2022-11-29T20:43:14.461Z,68.18
2022-11-29T20:45:45.573Z,68.17
2022-11-29T20:48:17.801Z,68.17
2022-11-29T20:50:50.376Z,68.28
2022-11-29T20:53:22.827Z,68.37
2022-11-29T20:55:53.751Z,68.27
2022-11-29T20:58:26.539Z,68.12
2022-11-29T21:00:57.733Z,68.28
2022-11-29T21:03:28.932Z,68.23
2022-11-29T21:06:01.309Z,68.24
2022-11-29T21:08:32.213Z,68.17
2022-11-29T21:11:07.081Z,68.22
2022-11-29T21:13:38.430Z,68.36
2022-11-29T21:16:10.859Z,68.26
2022-11-29T21:18:42.164Z,68.17
2022-11-29T21:21:14.927Z,68.14
2022-11-29T21:23:47.305Z,68.20
2022-11-29T21:26:20.331Z,68.30
2022-11-29T21:28:52.809Z,68.38
2022-11-29T21:31:23.928Z,68.23
2022-11-29T21:33:55.250Z,68.58
2022-11-29T21:36:26.576Z,68.56
2022-11-29T21:39:00.951Z,68.39
2022-11-29T21:41:30.159Z,68.43
2022-11-29T21:44:08.605Z,68.49
2022-11-29T21:46:33.702Z,68.61
2022-11-29T21:49:05.108Z,68.56
2022-11-29T21:51:36.332Z,68.65
2022-11-29T21:54:07.244Z,68.54
2022-11-29T21:56:38.038Z,68.57
2022-11-29T21:59:08.908Z,68.83
2022-11-29T22:01:40.084Z,68.67
2022-11-29T22:04:11.553Z,68.69
2022-11-29T22:06:42.862Z,68.58
2022-11-29T22:09:14.162Z,68.70
2022-11-29T22:11:45.831Z,68.67
2022-11-29T22:14:18.736Z,68.65
2022-11-29T22:16:54.162Z,68.62
2022-11-29T22:19:26.057Z,68.63
2022-11-29T22:21:58.391Z,68.84
2022-11-29T22:24:30.826Z,68.65
2022-11-29T22:27:01.991Z,68.61
2022-11-29T22:29:33.219Z,68.54
2022-11-29T22:32:04.090Z,68.61
2022-11-29T22:34:34.942Z,68.57
2022-11-29T22:37:05.871Z,68.65
2022-11-29T22:39:37.280Z,68.53
2022-11-29T22:42:08.199Z,68.70
2022-11-29T22:44:39.432Z,68.58
2022-11-29T22:47:10.348Z,68.57
2022-11-29T22:49:41.401Z,68.63
2022-11-29T22:52:12.454Z,68.62
2022-11-29T22:54:43.894Z,68.56
2022-11-29T22:57:15.139Z,68.68
2022-11-29T22:59:46.155Z,68.73
2022-11-29T23:02:17.607Z,68.65
2022-11-29T23:04:49.212Z,68.68
2022-11-29T23:07:20.737Z,68.76
2022-11-29T23:09:51.615Z,68.63
2022-11-29T23:12:22.609Z,68.71
2022-11-29T23:14:56.563Z,68.70
2022-11-29T23:17:26.011Z,68.68
2022-11-29T23:19:57.480Z,68.68
2022-11-29T23:22:28.820Z,68.78
2022-11-29T23:24:59.708Z,68.73
2022-11-29T23:27:31.620Z,68.66
2022-11-29T23:30:02.568Z,68.61
2022-11-29T23:32:33.718Z,68.71
2022-11-29T23:35:05.307Z,68.64
2022-11-29T23:37:36.269Z,68.62
2022-11-29T23:40:07.828Z,68.69
2022-11-29T23:42:40.508Z,68.74
2022-11-29T23:45:11.467Z,68.68
2022-11-29T23:47:42.374Z,68.65
2022-11-29T23:50:13.269Z,68.66
2022-11-29T23:52:44.261Z,68.61
2022-11-29T23:55:16.602Z,68.65
2022-11-29T23:57:47.398Z,68.57
